createdAt,value
2019-04-22T00:02:26.412Z,46.20
2019-04-22T00:05:09.590Z,46.50
2019-04-22T00:08:00.448Z,46.60
2019-04-22T00:10:26.135Z,46.70
2019-04-22T00:12:54.029Z,46.90
2019-04-22T00:15:20.202Z,47.10
2019-04-22T00:18:00.368Z,47.40
2019-04-22T00:20:30.855Z,47.40
2019-04-22T00:22:59.454Z,47.40
2019-04-22T00:25:38.433Z,47.40
2019-04-22T00:28:02.736Z,48.20
2019-04-22T00:30:34.305Z,49.10
2019-04-22T00:33:13.053Z,50.40
2019-04-22T00:35:41.359Z,51.60
2019-04-22T00:38:20.323Z,51.40
2019-04-22T00:40:44.640Z,51.90
2019-04-22T00:43:21.098Z,52.30
2019-04-22T00:45:49.165Z,52.60
2019-04-22T00:48:27.885Z,52.80
2019-04-22T00:51:01.771Z,53.40
2019-04-22T00:53:33.419Z,53.60
2019-04-22T00:56:07.917Z,54.30
2019-04-22T00:58:39.768Z,54.50
2019-04-22T01:01:17.410Z,55.30
2019-04-22T01:06:17.243Z,56.50
2019-04-22T01:08:51.357Z,56.80
2019-04-22T01:11:16.886Z,57.70
2019-04-22T01:13:44.266Z,58.40
2019-04-22T01:16:17.482Z,59.10
2019-04-22T01:18:49.070Z,60.20
2019-04-22T01:21:23.097Z,61.00
2019-04-22T01:23:49.100Z,62.70
2019-04-22T01:26:17.267Z,63.70
2019-04-22T01:28:46.359Z,64.80
2019-04-22T01:31:10.238Z,65.80
2019-04-22T01:33:40.829Z,66.90
2019-04-22T01:36:25.841Z,68.20
2019-04-22T01:39:02.023Z,70.40
2019-04-22T01:41:42.080Z,71.40
2019-04-22T01:44:15.848Z,73.40
2019-04-22T01:46:36.666Z,74.70
2019-04-22T01:49:07.893Z,76.50
2019-04-22T01:51:51.743Z,78.90
2019-04-22T01:54:12.167Z,81.30
2019-04-22T01:56:44.849Z,83.10
2019-04-22T01:59:06.268Z,85.10
2019-04-22T02:01:43.616Z,86.70
2019-04-22T02:04:19.161Z,88.40
2019-04-22T02:14:19.857Z,91.30
2019-04-22T02:16:50.057Z,92.20
2019-04-22T02:19:22.908Z,92.80
2019-04-22T02:21:48.534Z,93.80
2019-04-22T02:24:28.010Z,94.50
2019-04-22T02:27:12.358Z,95.20
2019-04-22T02:29:32.831Z,95.70
2019-04-22T02:37:03.301Z,97.10
2019-04-22T02:42:19.519Z,98.40
2019-04-22T02:44:42.646Z,99.40
2019-04-22T02:52:20.379Z,99.90
2019-04-22T02:54:49.088Z,99.90
2019-04-22T02:57:32.329Z,99.90
2019-04-22T03:00:07.407Z,99.90
2019-04-22T03:02:21.234Z,99.90
2019-04-22T03:04:47.266Z,99.90
2019-04-22T03:07:16.472Z,99.90
2019-04-22T03:09:54.946Z,99.90
2019-04-22T03:17:36.740Z,99.90
2019-04-22T03:20:02.673Z,99.90
2019-04-22T03:25:32.387Z,99.90
2019-04-22T03:27:22.074Z,99.90
2019-04-22T03:35:31.749Z,99.90
2019-04-22T03:37:49.350Z,99.90
2019-04-22T03:42:52.480Z,99.90
2019-04-22T03:47:50.904Z,99.90
2019-04-22T03:50:15.832Z,99.90
2019-04-22T03:52:50.182Z,99.90
2019-04-22T03:55:15.176Z,99.90
2019-04-22T03:57:50.022Z,99.90
2019-04-22T04:00:32.591Z,99.90
2019-04-22T04:05:35.704Z,99.90
2019-04-22T04:12:59.929Z,99.90
2019-04-22T04:17:56.790Z,99.90
2019-04-22T04:20:28.745Z,99.90
2019-04-22T04:23:07.840Z,99.90
2019-04-22T04:25:46.688Z,99.90
2019-04-22T04:28:24.423Z,99.90
2019-04-22T04:33:05.110Z,99.90
2019-04-22T04:35:42.154Z,99.90
2019-04-22T04:40:50.879Z,99.90
2019-04-22T04:43:08.244Z,99.90
2019-04-22T04:45:45.280Z,99.90
2019-04-22T04:48:14.375Z,99.90
2019-04-22T04:50:47.394Z,99.90
2019-04-22T04:56:02.766Z,99.90
2019-04-22T04:58:25.008Z,99.90
2019-04-22T05:00:58.165Z,99.90
2019-04-22T05:03:21.343Z,99.90
2019-04-22T05:05:50.464Z,99.90
2019-04-22T05:08:33.058Z,99.90
2019-04-22T05:11:02.627Z,99.90
2019-04-22T05:13:26.062Z,99.60
2019-04-22T05:16:10.807Z,94.70
2019-04-22T05:18:27.013Z,84.30
2019-04-22T05:23:28.808Z,63.30
2019-04-22T05:25:55.136Z,57.30
2019-04-22T05:28:24.011Z,53.00
2019-04-22T05:30:57.654Z,49.60
2019-04-22T05:33:33.168Z,47.20
2019-04-22T05:35:56.023Z,45.00
2019-04-22T05:38:34.906Z,43.30
2019-04-22T05:40:56.345Z,41.80
2019-04-22T05:43:28.694Z,40.20
2019-04-22T05:45:58.466Z,39.70
2019-04-22T05:48:35.518Z,39.60
2019-04-22T05:51:05.586Z,40.30
2019-04-22T05:53:37.238Z,40.60
2019-04-22T05:56:09.937Z,40.60
2019-04-22T05:58:38.108Z,40.10
2019-04-22T06:03:49.304Z,38.90
2019-04-22T06:06:16.377Z,37.60
2019-04-22T06:08:48.586Z,36.40
2019-04-22T06:11:22.752Z,35.20
2019-04-22T06:13:40.456Z,34.00
2019-04-22T06:16:20.589Z,33.30
2019-04-22T06:19:01.052Z,32.20
2019-04-22T06:21:26.792Z,31.80
2019-04-22T06:24:04.796Z,31.10
2019-04-22T06:26:40.601Z,30.50
2019-04-22T06:29:01.531Z,29.90
2019-04-22T06:31:37.300Z,29.90
2019-04-22T06:34:03.470Z,29.80
2019-04-22T06:36:37.439Z,29.50
2019-04-22T06:39:10.420Z,28.80
2019-04-22T06:41:35.364Z,28.50
2019-04-22T06:44:16.219Z,28.10
2019-04-22T06:46:44.430Z,27.70
2019-04-22T06:49:11.226Z,27.40
2019-04-22T06:51:40.573Z,26.80
2019-04-22T06:54:07.570Z,26.90
2019-04-22T06:56:43.062Z,26.50
2019-04-22T06:59:11.918Z,26.50
2019-04-22T07:01:43.152Z,25.90
2019-04-22T07:04:09.439Z,25.90
2019-04-22T07:06:48.610Z,25.10
2019-04-22T07:09:38.597Z,25.20
2019-04-22T07:11:45.166Z,24.60
2019-04-22T07:14:16.318Z,24.50
2019-04-22T07:16:54.550Z,24.60
2019-04-22T07:19:21.883Z,24.30
2019-04-22T07:21:50.643Z,24.30
2019-04-22T07:24:35.606Z,23.40
2019-04-22T07:27:02.221Z,22.70
2019-04-22T07:29:28.760Z,23.50
2019-04-22T07:34:33.216Z,23.10
2019-04-22T07:37:13.425Z,22.80
2019-04-22T07:39:30.824Z,22.70
2019-04-22T07:42:10.677Z,22.50
2019-04-22T07:47:15.223Z,22.70
2019-04-22T07:49:39.073Z,22.90
2019-04-22T07:52:05.026Z,22.50
2019-04-22T07:54:43.142Z,23.10
2019-04-22T07:57:14.836Z,23.30
2019-04-22T07:59:40.410Z,23.50
2019-04-22T08:02:10.384Z,22.70
2019-04-22T08:04:54.212Z,22.70
2019-04-22T08:07:33.146Z,22.00
2019-04-22T08:09:53.894Z,22.10
2019-04-22T08:12:12.877Z,22.30
2019-04-22T08:14:50.005Z,21.90
2019-04-22T08:17:52.071Z,21.40
2019-04-22T08:19:50.489Z,21.50
2019-04-22T08:22:15.668Z,21.20
2019-04-22T08:24:56.376Z,20.70
2019-04-22T08:27:26.377Z,20.50
2019-04-22T08:29:59.800Z,20.70
2019-04-22T08:32:28.452Z,20.50
2019-04-22T08:35:00.502Z,20.70
2019-04-22T08:40:01.919Z,19.90
2019-04-22T08:42:51.635Z,20.00
2019-04-22T08:47:31.013Z,20.60
2019-04-22T08:52:38.598Z,19.90
2019-04-22T08:57:55.553Z,19.00
2019-04-22T09:00:08.403Z,18.80
2019-04-22T09:02:41.359Z,18.80
2019-04-22T09:05:19.093Z,18.10
2019-04-22T09:07:46.611Z,18.30
2019-04-22T09:10:10.317Z,18.20
2019-04-22T09:12:56.823Z,18.50
2019-04-22T09:15:10.217Z,18.80
2019-04-22T09:17:47.707Z,18.80
2019-04-22T09:20:24.644Z,19.00
2019-04-22T09:22:48.399Z,18.30
2019-04-22T09:25:17.033Z,18.90
2019-04-22T09:27:49.877Z,18.90
2019-04-22T09:32:55.742Z,18.60
2019-04-22T09:35:24.866Z,18.40
2019-04-22T09:38:08.956Z,18.30
2019-04-22T09:40:21.712Z,18.30
2019-04-22T09:42:56.092Z,19.10
2019-04-22T09:45:21.648Z,18.80
2019-04-22T09:48:00.861Z,18.80
2019-04-22T09:53:02.307Z,19.20
2019-04-22T09:55:29.849Z,19.60
2019-04-22T09:58:03.209Z,19.10
2019-04-22T10:00:42.998Z,18.60
2019-04-22T10:03:29.661Z,18.30
2019-04-22T10:05:40.771Z,18.40
2019-04-22T10:08:16.598Z,18.90
2019-04-22T10:10:44.947Z,18.70
2019-04-22T10:13:18.687Z,19.10
2019-04-22T10:15:52.104Z,18.70
2019-04-22T10:18:19.636Z,18.80
2019-04-22T10:20:54.218Z,18.70
2019-04-22T10:23:24.984Z,18.60
2019-04-22T10:25:52.306Z,19.40
2019-04-22T10:28:27.012Z,19.10
2019-04-22T10:31:11.492Z,19.30
2019-04-22T10:33:22.102Z,18.40
2019-04-22T10:35:32.960Z,18.70
2019-04-22T10:38:03.841Z,19.10
2019-04-22T10:40:34.771Z,19.20
2019-04-22T10:43:05.298Z,19.60
2019-04-22T10:45:36.218Z,19.90
2019-04-22T10:48:06.448Z,20.10
2019-04-22T10:50:43.776Z,19.60
2019-04-22T10:53:15.330Z,19.50
2019-04-22T10:55:47.154Z,19.60
2019-04-22T10:58:16.937Z,20.00
2019-04-22T11:00:47.370Z,20.60
2019-04-22T11:03:18.222Z,21.10
2019-04-22T11:05:48.384Z,21.40
2019-04-22T11:08:27.276Z,21.70
2019-04-22T11:11:04.793Z,22.40
2019-04-22T11:13:20.224Z,23.30
2019-04-22T11:15:50.612Z,22.90
2019-04-22T11:18:20.479Z,23.20
2019-04-22T11:20:49.873Z,23.10
2019-04-22T11:23:20.448Z,22.80
2019-04-22T11:25:50.075Z,23.30
2019-04-22T11:28:19.921Z,23.30
2019-04-22T11:30:50.205Z,22.80
2019-04-22T11:33:20.636Z,23.50
2019-04-22T11:35:50.218Z,23.60
2019-04-22T11:38:19.677Z,23.60
2019-04-22T11:40:53.526Z,23.50
2019-04-22T11:43:20.137Z,23.50
2019-04-22T11:45:51.103Z,23.30
2019-04-22T11:48:23.646Z,23.80
2019-04-22T11:50:53.724Z,23.50
2019-04-22T11:53:23.203Z,23.10
2019-04-22T11:55:53.181Z,23.60
2019-04-22T11:58:22.674Z,23.60
2019-04-22T12:00:53.388Z,23.80
2019-04-22T12:03:25.366Z,23.90
2019-04-22T12:05:55.563Z,23.90
2019-04-22T12:08:25.213Z,24.10
2019-04-22T12:10:59.084Z,24.50
2019-04-22T12:13:26.248Z,23.50
2019-04-22T12:15:55.748Z,23.50
2019-04-22T12:18:25.342Z,23.50
2019-04-22T12:20:55.270Z,23.10
2019-04-22T12:23:25.155Z,23.10
2019-04-22T12:26:02.096Z,22.90
2019-04-22T12:28:31.087Z,23.00
2019-04-22T12:31:03.713Z,23.20
2019-04-22T12:33:33.226Z,23.30
2019-04-22T12:36:08.485Z,22.70
2019-04-22T12:38:37.974Z,22.90
2019-04-22T12:41:10.392Z,23.20
2019-04-22T12:43:38.746Z,21.70
2019-04-22T12:46:14.256Z,22.20
2019-04-22T12:48:43.248Z,22.60
2019-04-22T12:51:13.385Z,22.80
2019-04-22T12:53:45.841Z,22.40
2019-04-22T12:56:15.510Z,21.80
2019-04-22T12:58:47.547Z,22.60
2019-04-22T13:01:16.997Z,22.50
2019-04-22T13:03:46.564Z,21.90
2019-04-22T13:06:17.336Z,22.00
2019-04-22T13:08:47.651Z,21.60
2019-04-22T13:11:21.415Z,22.00
2019-04-22T13:13:49.346Z,21.70
2019-04-22T13:16:18.919Z,21.10
2019-04-22T13:18:55.632Z,21.10
2019-04-22T13:21:20.531Z,21.30
2019-04-22T13:23:50.821Z,21.30
2019-04-22T13:26:21.149Z,21.20
2019-04-22T13:28:51.440Z,22.10
2019-04-22T13:31:21.397Z,21.40
2019-04-22T13:33:54.967Z,21.40
2019-04-22T13:36:27.656Z,21.40
2019-04-22T13:38:56.569Z,21.20
2019-04-22T13:41:33.897Z,21.70
2019-04-22T13:43:58.096Z,21.50
2019-04-22T13:46:31.311Z,21.20
2019-04-22T13:49:28.852Z,21.30
2019-04-22T13:56:51.893Z,21.90
2019-04-22T13:59:17.306Z,22.30
2019-04-22T14:01:43.056Z,22.50
2019-04-22T14:04:23.041Z,22.70
2019-04-22T14:06:52.594Z,21.80
2019-04-22T14:09:22.419Z,22.50
2019-04-22T14:11:58.287Z,22.70
2019-04-22T14:14:24.008Z,22.20
2019-04-22T14:16:53.487Z,21.80
2019-04-22T14:19:23.704Z,21.30
2019-04-22T14:21:53.813Z,21.50
2019-04-22T14:24:23.736Z,21.80
2019-04-22T14:27:07.146Z,21.20
2019-04-22T14:29:25.852Z,21.40
2019-04-22T14:32:05.634Z,21.30
2019-04-22T14:34:28.008Z,21.60
2019-04-22T14:36:57.592Z,20.80
2019-04-22T14:39:28.076Z,21.20
2019-04-22T14:42:19.577Z,21.90
2019-04-22T14:47:26.534Z,22.40
2019-04-22T14:50:02.709Z,21.80
2019-04-22T14:52:30.787Z,21.60
2019-04-22T14:54:50.817Z,20.90
2019-04-22T14:57:08.590Z,21.40
2019-04-22T14:59:37.906Z,21.20
2019-04-22T15:02:09.800Z,21.60
2019-04-22T15:04:39.380Z,21.90
2019-04-22T15:07:08.839Z,22.30
2019-04-22T15:09:39.501Z,22.40
2019-04-22T15:12:18.230Z,22.30
2019-04-22T15:14:41.635Z,22.60
2019-04-22T15:17:27.082Z,22.60
2019-04-22T15:20:07.826Z,22.50
2019-04-22T15:22:38.765Z,23.10
2019-04-22T15:25:08.478Z,23.40
2019-04-22T15:27:39.320Z,23.70
2019-04-22T15:30:09.717Z,24.00
2019-04-22T15:32:39.310Z,23.80
2019-04-22T15:35:09.228Z,24.10
2019-04-22T15:37:41.528Z,24.20
2019-04-22T15:40:11.298Z,24.00
2019-04-22T15:42:43.302Z,24.50
2019-04-22T15:45:14.410Z,24.70
2019-04-22T15:47:44.037Z,24.70
2019-04-22T15:50:14.224Z,24.40
2019-04-22T15:52:47.862Z,24.20
2019-04-22T15:55:14.805Z,24.40
2019-04-22T15:57:52.011Z,24.10
2019-04-22T16:00:36.766Z,24.10
2019-04-22T16:02:52.888Z,23.90
2019-04-22T16:05:22.639Z,24.20
2019-04-22T16:07:53.025Z,24.10
2019-04-22T16:10:23.835Z,24.40
2019-04-22T16:13:03.484Z,24.50
2019-04-22T16:15:24.759Z,24.70
2019-04-22T16:17:55.016Z,24.40
2019-04-22T16:20:25.870Z,24.80
2019-04-22T16:23:09.568Z,24.80
2019-04-22T16:25:56.407Z,25.00
2019-04-22T16:28:26.993Z,25.00
2019-04-22T16:30:57.636Z,24.70
2019-04-22T16:33:27.743Z,24.70
2019-04-22T16:35:58.553Z,24.80
2019-04-22T16:38:28.899Z,25.10
2019-04-22T16:40:58.886Z,25.10
2019-04-22T16:43:28.798Z,24.60
2019-04-22T16:45:58.359Z,24.10
2019-04-22T16:48:27.766Z,24.10
2019-04-22T16:50:58.459Z,24.10
2019-04-22T16:53:29.361Z,24.20
2019-04-22T16:55:59.199Z,24.40
2019-04-22T16:58:28.774Z,24.50
2019-04-22T17:00:58.779Z,24.50
2019-04-22T17:03:50.116Z,24.60
2019-04-22T17:06:25.647Z,24.80
2019-04-22T17:08:55.387Z,24.80
2019-04-22T17:11:27.806Z,25.00
2019-04-22T17:13:57.349Z,25.00
2019-04-22T17:16:28.329Z,25.10
2019-04-22T17:18:58.499Z,25.20
2019-04-22T17:21:28.003Z,25.30
2019-04-22T17:23:59.715Z,25.20
2019-04-22T17:26:30.354Z,25.40
2019-04-22T17:29:03.102Z,25.50
2019-04-22T17:31:31.088Z,25.60
2019-04-22T17:34:00.503Z,25.60
2019-04-22T17:36:29.945Z,25.80
2019-04-22T17:39:15.556Z,25.90
2019-04-22T17:41:50.086Z,26.20
2019-04-22T17:44:39.735Z,26.40
2019-04-22T17:47:23.445Z,26.60
2019-04-22T17:50:01.575Z,26.70
2019-04-22T17:52:30.589Z,26.70
2019-04-22T17:55:00.937Z,27.00
2019-04-22T17:57:34.584Z,26.90
2019-04-22T18:00:01.553Z,26.90
2019-04-22T18:02:32.256Z,27.10
2019-04-22T18:04:55.109Z,27.00
2019-04-22T18:07:41.179Z,26.90
2019-04-22T18:10:27.114Z,27.00
2019-04-22T18:12:42.357Z,26.70
2019-04-22T18:15:14.599Z,26.70
2019-04-22T18:17:52.181Z,26.50
2019-04-22T18:20:14.479Z,26.50
2019-04-22T18:22:39.577Z,26.30
2019-04-22T18:25:07.521Z,26.60
2019-04-22T18:28:00.719Z,26.60
2019-04-22T18:30:14.859Z,26.90
2019-04-22T18:32:50.693Z,26.90
2019-04-22T18:35:20.501Z,27.20
2019-04-22T18:37:57.941Z,27.30
2019-04-22T18:40:24.224Z,27.30
2019-04-22T18:42:58.396Z,27.40
2019-04-22T18:47:52.205Z,27.80
2019-04-22T18:50:36.980Z,27.80
2019-04-22T18:53:25.150Z,28.00
2019-04-22T18:56:13.940Z,28.10
2019-04-22T18:58:35.749Z,28.30
2019-04-22T19:00:52.745Z,28.40
2019-04-22T19:03:27.410Z,28.60
2019-04-22T19:06:25.893Z,28.40
2019-04-22T19:08:45.127Z,28.50
2019-04-22T19:11:17.036Z,28.60
2019-04-22T19:18:56.432Z,28.80
2019-04-22T19:21:15.650Z,28.90
2019-04-22T19:23:50.537Z,29.50
2019-04-22T19:26:30.317Z,29.30
2019-04-22T19:28:55.481Z,29.20
2019-04-22T19:31:24.686Z,29.30
2019-04-22T19:34:00.745Z,29.20
2019-04-22T19:36:26.112Z,29.10
2019-04-22T19:39:02.928Z,29.10
2019-04-22T19:41:36.802Z,29.10
2019-04-22T19:44:05.771Z,29.20
2019-04-22T19:46:35.463Z,29.20
2019-04-22T19:49:14.133Z,29.20
2019-04-22T19:51:45.596Z,29.60
2019-04-22T19:54:12.595Z,29.30
2019-04-22T19:56:33.742Z,29.40
2019-04-22T19:59:12.123Z,29.30
2019-04-22T20:02:15.975Z,29.40
2019-04-22T20:05:06.455Z,29.40
2019-04-22T20:07:38.522Z,29.40
2019-04-22T20:10:16.191Z,29.50
2019-04-22T20:12:42.844Z,29.60
2019-04-22T20:15:14.207Z,29.40
2019-04-22T20:18:11.670Z,29.30
2019-04-22T20:20:23.027Z,29.30
2019-04-22T20:22:46.724Z,29.30
2019-04-22T20:25:07.508Z,29.20
2019-04-22T20:27:58.065Z,29.10
2019-04-22T20:30:23.540Z,29.20
2019-04-22T20:32:52.457Z,29.20
2019-04-22T20:35:29.474Z,29.30
2019-04-22T20:37:56.864Z,29.40
2019-04-22T20:40:31.857Z,29.50
2019-04-22T20:43:02.378Z,29.40
2019-04-22T20:45:35.219Z,29.50
2019-04-22T20:47:51.233Z,29.50
2019-04-22T20:50:39.466Z,29.60
2019-04-22T20:53:11.751Z,29.70
2019-04-22T20:55:40.495Z,29.70
2019-04-22T20:58:13.483Z,29.70
2019-04-22T21:00:32.348Z,29.80
2019-04-22T21:02:59.763Z,29.70
2019-04-22T21:05:34.473Z,29.90
2019-04-22T21:08:15.157Z,29.90
2019-04-22T21:10:40.240Z,30.00
2019-04-22T21:13:07.022Z,30.00
2019-04-22T21:15:49.519Z,30.10
2019-04-22T21:18:15.133Z,30.10
2019-04-22T21:20:51.860Z,30.10
2019-04-22T21:23:16.540Z,30.40
2019-04-22T21:25:42.182Z,30.30
2019-04-22T21:28:21.476Z,30.30
2019-04-22T21:30:53.519Z,30.50
2019-04-22T21:33:18.608Z,30.60
2019-04-22T21:38:26.631Z,30.80
2019-04-22T21:40:56.691Z,31.00
2019-04-22T21:43:30.186Z,31.10
2019-04-22T21:46:04.522Z,31.40
2019-04-22T21:48:36.903Z,31.50
2019-04-22T21:51:04.995Z,31.80
2019-04-22T21:53:38.087Z,31.90
2019-04-22T21:56:27.278Z,32.20
2019-04-22T21:58:47.027Z,32.40
2019-04-22T22:04:11.413Z,32.80
2019-04-22T22:06:19.019Z,32.90
2019-04-22T22:08:59.649Z,33.10
2019-04-22T22:11:32.517Z,33.20
2019-04-22T22:14:04.550Z,33.30
2019-04-22T22:16:23.162Z,33.50
2019-04-22T22:19:00.844Z,33.50
2019-04-22T22:21:43.432Z,33.80
2019-04-22T22:24:08.727Z,33.80
2019-04-22T22:26:39.933Z,34.00
2019-04-22T22:29:08.911Z,34.10
2019-04-22T22:31:40.070Z,34.40
2019-04-22T22:34:13.511Z,34.50
2019-04-22T22:36:36.718Z,34.80
2019-04-22T22:39:03.912Z,34.80
2019-04-22T22:41:21.684Z,35.00
2019-04-22T22:43:53.110Z,35.20
2019-04-22T22:46:33.051Z,35.50
2019-04-22T22:49:20.455Z,35.50
2019-04-22T22:51:53.178Z,35.80
2019-04-22T22:54:18.390Z,36.60
2019-04-22T22:56:56.906Z,36.10
2019-04-22T22:59:18.225Z,36.10
2019-04-22T23:01:50.954Z,36.30
2019-04-22T23:04:23.779Z,36.40
2019-04-22T23:06:56.781Z,36.60
2019-04-22T23:09:19.553Z,36.80
2019-04-22T23:12:06.120Z,36.90
2019-04-22T23:14:29.773Z,37.00
2019-04-22T23:16:45.685Z,37.30
2019-04-22T23:19:07.428Z,37.30
2019-04-22T23:21:44.024Z,37.30
2019-04-22T23:24:28.250Z,37.50
2019-04-22T23:27:10.173Z,37.60
2019-04-22T23:29:51.931Z,37.70
2019-04-22T23:32:28.201Z,37.70
2019-04-22T23:35:08.347Z,37.90
2019-04-22T23:37:39.515Z,38.20
2019-04-22T23:40:15.776Z,38.40
2019-04-22T23:42:44.799Z,38.40
2019-04-22T23:45:15.754Z,38.50
2019-04-22T23:47:35.336Z,38.30
2019-04-22T23:50:14.192Z,38.80
2019-04-22T23:53:06.514Z,38.80
2019-04-22T23:55:34.075Z,38.80
2019-04-22T23:58:02.742Z,39.00
